createdAt,value
2018-01-19T00:01:04.057Z,3.43
2018-01-19T00:03:07.417Z,3.43
2018-01-19T00:05:10.810Z,2.37
2018-01-19T00:07:14.166Z,3.27
2018-01-19T00:09:17.543Z,3.00
2018-01-19T00:11:20.928Z,4.00
2018-01-19T00:13:24.288Z,3.87
2018-01-19T00:15:28.433Z,2.80
2018-01-19T00:17:31.791Z,2.53
2018-01-19T00:19:35.931Z,2.30
2018-01-19T00:21:39.287Z,2.73
2018-01-19T00:23:43.193Z,3.70
2018-01-19T00:25:47.316Z,3.73
2018-01-19T00:27:51.445Z,2.83
2018-01-19T00:29:54.805Z,3.37
2018-01-19T00:31:58.782Z,3.13
2018-01-19T00:34:02.903Z,3.37
2018-01-19T00:36:06.265Z,2.93
2018-01-19T00:38:09.457Z,4.97
2018-01-19T00:40:12.836Z,2.57
2018-01-19T00:42:16.248Z,1.87
2018-01-19T00:44:19.616Z,2.73
2018-01-19T00:46:23.012Z,2.90
2018-01-19T00:48:26.372Z,2.80
2018-01-19T00:50:30.513Z,2.73
2018-01-19T00:52:33.873Z,1.87
2018-01-19T00:54:38.015Z,2.77
2018-01-19T00:56:41.399Z,3.10
2018-01-19T00:58:44.954Z,2.93
2018-01-19T01:00:48.347Z,3.00
2018-01-19T01:02:52.478Z,2.90
2018-01-19T01:04:55.847Z,2.17
2018-01-19T01:06:59.202Z,4.60
2018-01-19T01:09:02.555Z,2.37
2018-01-19T01:11:06.026Z,2.57
2018-01-19T01:13:09.421Z,2.47
2018-01-19T01:15:12.780Z,2.03
2018-01-19T01:17:16.140Z,1.90
2018-01-19T01:19:19.502Z,2.17
2018-01-19T01:21:23.627Z,2.93
2018-01-19T01:23:27.027Z,2.47
2018-01-19T01:25:30.377Z,2.27
2018-01-19T01:27:33.744Z,2.57
2018-01-19T01:29:37.102Z,1.90
2018-01-19T01:31:40.477Z,1.87
2018-01-19T01:33:44.623Z,2.43
2018-01-19T01:35:47.976Z,1.53
2018-01-19T01:37:52.968Z,2.30
2018-01-19T01:39:56.322Z,1.50
2018-01-19T01:41:59.706Z,2.27
2018-01-19T01:44:03.094Z,1.83
2018-01-19T01:46:06.449Z,2.33
2018-01-19T01:48:09.810Z,2.70
2018-01-19T01:50:13.153Z,2.33
2018-01-19T01:52:17.280Z,2.53
2018-01-19T01:54:20.652Z,2.23
2018-01-19T01:56:24.767Z,2.60
2018-01-19T01:58:28.914Z,1.83
2018-01-19T02:00:32.269Z,2.13
2018-01-19T02:02:36.391Z,2.73
2018-01-19T02:04:39.752Z,2.43
2018-01-19T02:06:43.104Z,1.87
2018-01-19T02:08:46.457Z,1.70
2018-01-19T02:10:50.602Z,1.17
2018-01-19T02:12:53.982Z,1.83
2018-01-19T02:14:57.342Z,1.93
2018-01-19T02:17:01.484Z,1.63
2018-01-19T02:19:04.874Z,1.97
2018-01-19T02:21:08.238Z,2.40
2018-01-19T02:23:12.178Z,2.30
2018-01-19T02:25:15.533Z,1.57
2018-01-19T02:27:19.753Z,2.57
2018-01-19T02:29:23.910Z,1.60
2018-01-19T02:31:27.279Z,1.63
2018-01-19T02:33:30.645Z,2.10
2018-01-19T02:35:34.792Z,2.13
2018-01-19T02:37:38.238Z,1.73
2018-01-19T02:39:41.647Z,1.50
2018-01-19T02:41:44.830Z,1.20
2018-01-19T02:43:48.306Z,1.40
2018-01-19T02:45:52.435Z,1.77
2018-01-19T02:47:55.796Z,1.43
2018-01-19T02:49:59.192Z,1.67
2018-01-19T02:52:03.368Z,1.47
2018-01-19T02:54:06.782Z,2.97
2018-01-19T02:56:10.911Z,2.23
2018-01-19T02:58:15.048Z,1.50
2018-01-19T03:00:18.442Z,1.83
2018-01-19T03:02:21.842Z,1.63
2018-01-19T03:04:25.210Z,2.10
2018-01-19T03:06:29.338Z,1.20
2018-01-19T03:08:32.695Z,1.00
2018-01-19T03:10:36.079Z,1.43
2018-01-19T03:12:39.450Z,1.37
2018-01-19T03:14:42.822Z,1.77
2018-01-19T03:16:46.185Z,2.70
2018-01-19T03:18:50.316Z,1.47
2018-01-19T03:20:53.710Z,1.13
2018-01-19T03:22:57.084Z,1.50
2018-01-19T03:25:00.447Z,1.40
2018-01-19T03:27:03.822Z,1.27
2018-01-19T03:29:07.185Z,1.00
2018-01-19T03:31:10.575Z,1.60
2018-01-19T03:33:13.945Z,1.33
2018-01-19T03:35:17.304Z,1.33
2018-01-19T03:37:20.658Z,1.30
2018-01-19T03:39:24.013Z,1.10
2018-01-19T03:41:28.141Z,0.90
2018-01-19T03:43:31.496Z,1.53
2018-01-19T03:45:34.849Z,1.30
2018-01-19T03:47:38.215Z,0.90
2018-01-19T03:49:41.573Z,1.53
2018-01-19T03:51:44.931Z,1.03
2018-01-19T03:53:48.307Z,1.33
2018-01-19T03:55:51.496Z,1.30
2018-01-19T03:57:55.638Z,0.90
2018-01-19T03:59:59.005Z,2.33
2018-01-19T04:02:02.379Z,1.20
2018-01-19T04:04:05.742Z,0.90
2018-01-19T04:06:09.961Z,1.33
2018-01-19T04:08:14.265Z,1.47
2018-01-19T04:10:18.406Z,1.17
2018-01-19T04:12:21.765Z,1.27
2018-01-19T04:14:25.877Z,1.27
2018-01-19T04:16:30.027Z,1.20
2018-01-19T04:18:33.385Z,1.97
2018-01-19T04:20:37.514Z,1.17
2018-01-19T04:22:40.892Z,1.13
2018-01-19T04:24:44.260Z,1.30
2018-01-19T04:26:47.488Z,0.77
2018-01-19T04:28:50.864Z,1.27
2018-01-19T04:30:54.236Z,1.03
2018-01-19T04:32:57.626Z,1.00
2018-01-19T04:35:00.990Z,1.87
2018-01-19T04:37:04.194Z,1.10
2018-01-19T04:39:07.558Z,1.10
2018-01-19T04:41:10.918Z,1.13
2018-01-19T04:43:14.287Z,1.27
2018-01-19T04:45:18.418Z,0.73
2018-01-19T04:47:21.794Z,1.27
2018-01-19T04:49:25.924Z,1.07
2018-01-19T04:51:29.294Z,1.50
2018-01-19T04:53:33.420Z,1.17
2018-01-19T04:55:36.772Z,1.03
2018-01-19T04:57:39.954Z,1.03
2018-01-19T04:59:43.312Z,1.10
2018-01-19T05:01:46.707Z,1.10
2018-01-19T05:03:50.066Z,1.33
2018-01-19T05:05:54.195Z,0.93
2018-01-19T05:07:57.545Z,1.23
2018-01-19T05:10:00.919Z,1.27
2018-01-19T05:12:05.038Z,0.90
2018-01-19T05:14:08.421Z,1.20
2018-01-19T05:16:11.825Z,0.87
2018-01-19T05:18:15.205Z,0.77
2018-01-19T05:20:18.571Z,0.70
2018-01-19T05:22:21.933Z,0.60
2018-01-19T05:24:26.056Z,1.30
2018-01-19T05:26:29.406Z,0.80
2018-01-19T05:28:32.763Z,0.70
2018-01-19T05:30:36.120Z,0.90
2018-01-19T05:32:39.277Z,1.63
2018-01-19T05:34:42.626Z,1.20
2018-01-19T05:36:45.993Z,1.47
2018-01-19T05:38:49.173Z,1.23
2018-01-19T05:40:52.539Z,2.10
2018-01-19T05:42:55.916Z,0.83
2018-01-19T05:44:59.286Z,4.67
2018-01-19T05:47:02.645Z,1.43
2018-01-19T05:49:06.004Z,0.50
2018-01-19T05:51:09.361Z,3.20
2018-01-19T05:53:12.816Z,0.80
2018-01-19T05:55:16.947Z,1.30
2018-01-19T05:57:20.308Z,2.10
2018-01-19T05:59:24.583Z,1.77
2018-01-19T06:01:27.930Z,0.90
2018-01-19T06:03:32.076Z,1.23
2018-01-19T06:05:35.461Z,3.67
2018-01-19T06:07:38.815Z,1.43
2018-01-19T06:09:42.948Z,1.37
2018-01-19T06:11:46.300Z,1.70
2018-01-19T06:13:50.456Z,1.80
2018-01-19T06:15:53.829Z,2.23
2018-01-19T06:17:57.208Z,1.70
2018-01-19T06:20:01.349Z,3.20
2018-01-19T06:22:06.112Z,1.23
2018-01-19T06:24:09.508Z,1.40
2018-01-19T06:26:12.872Z,1.57
2018-01-19T06:28:16.243Z,1.17
2018-01-19T06:30:19.596Z,2.23
2018-01-19T06:32:23.726Z,1.60
2018-01-19T06:34:27.080Z,1.90
2018-01-19T06:36:30.445Z,1.03
2018-01-19T06:38:33.807Z,0.67
2018-01-19T06:40:37.175Z,0.80
2018-01-19T06:42:41.350Z,1.27
2018-01-19T06:44:44.709Z,1.60
2018-01-19T06:46:48.072Z,1.20
2018-01-19T06:48:52.211Z,1.97
2018-01-19T06:50:55.572Z,1.57
2018-01-19T06:52:59.716Z,1.93
2018-01-19T06:55:03.069Z,2.23
2018-01-19T06:57:07.192Z,1.57
2018-01-19T06:59:10.557Z,1.00
2018-01-19T07:01:13.929Z,1.17
2018-01-19T07:03:18.092Z,0.83
2018-01-19T07:05:21.468Z,1.50
2018-01-19T07:07:25.602Z,1.90
2018-01-19T07:09:28.955Z,1.20
2018-01-19T07:11:32.311Z,1.13
2018-01-19T07:13:35.681Z,1.80
2018-01-19T07:15:39.037Z,0.93
2018-01-19T07:17:42.391Z,1.10
2018-01-19T07:19:45.777Z,0.80
2018-01-19T07:21:49.129Z,1.30
2018-01-19T07:23:53.463Z,0.90
2018-01-19T07:25:56.861Z,2.23
2018-01-19T07:28:00.212Z,6.90
2018-01-19T07:30:03.629Z,1.53
2018-01-19T07:32:06.998Z,1.50
2018-01-19T07:34:10.352Z,0.87
2018-01-19T07:36:13.713Z,1.13
2018-01-19T07:38:17.065Z,1.10
2018-01-19T07:40:20.242Z,2.57
2018-01-19T07:42:23.434Z,1.00
2018-01-19T07:44:26.797Z,2.37
2018-01-19T07:46:30.151Z,1.90
2018-01-19T07:48:33.512Z,1.33
2018-01-19T07:50:36.884Z,1.13
2018-01-19T07:52:40.238Z,1.80
2018-01-19T07:54:43.601Z,0.80
2018-01-19T07:56:47.716Z,1.10
2018-01-19T07:58:51.857Z,1.50
2018-01-19T08:00:56.153Z,1.70
2018-01-19T08:03:00.285Z,1.93
2018-01-19T08:05:03.649Z,1.60
2018-01-19T08:07:07.776Z,1.37
2018-01-19T08:09:11.155Z,0.80
2018-01-19T08:11:14.512Z,0.60
2018-01-19T08:13:17.873Z,1.80
2018-01-19T08:15:21.227Z,1.40
2018-01-19T08:17:25.377Z,1.90
2018-01-19T08:19:28.729Z,1.87
2018-01-19T08:21:32.844Z,2.00
2018-01-19T08:23:36.202Z,1.03
2018-01-19T08:25:39.556Z,1.33
2018-01-19T08:27:42.923Z,2.43
2018-01-19T08:29:46.294Z,2.57
2018-01-19T08:31:50.406Z,1.90
2018-01-19T08:33:54.517Z,1.47
2018-01-19T08:35:58.648Z,1.53
2018-01-19T08:38:02.024Z,2.07
2018-01-19T08:40:05.378Z,1.00
2018-01-19T08:42:08.542Z,1.40
2018-01-19T08:44:12.677Z,1.33
2018-01-19T08:46:16.037Z,0.67
2018-01-19T08:48:19.396Z,2.37
2018-01-19T08:50:22.758Z,1.90
2018-01-19T08:52:26.129Z,1.40
2018-01-19T08:54:29.490Z,1.40
2018-01-19T08:56:32.871Z,0.67
2018-01-19T08:58:36.227Z,1.73
2018-01-19T09:00:39.610Z,1.37
2018-01-19T09:02:42.968Z,0.87
2018-01-19T09:04:46.322Z,0.93
2018-01-19T09:06:50.446Z,1.10
2018-01-19T09:08:53.809Z,1.20
2018-01-19T09:10:57.945Z,1.00
2018-01-19T09:13:02.060Z,0.97
2018-01-19T09:15:05.426Z,1.43
2018-01-19T09:17:09.549Z,1.40
2018-01-19T09:19:13.679Z,1.77
2018-01-19T09:21:17.073Z,1.50
2018-01-19T09:23:21.384Z,1.33
2018-01-19T09:25:24.802Z,1.20
2018-01-19T09:27:28.320Z,1.27
2018-01-19T09:29:31.685Z,3.00
2018-01-19T09:31:35.038Z,1.20
2018-01-19T09:33:39.175Z,1.17
2018-01-19T09:35:42.563Z,2.10
2018-01-19T09:37:45.929Z,2.37
2018-01-19T09:39:49.288Z,1.73
2018-01-19T09:41:52.640Z,2.10
2018-01-19T09:43:56.003Z,1.67
2018-01-19T09:46:00.146Z,1.47
2018-01-19T09:48:03.505Z,1.40
2018-01-19T09:50:06.885Z,1.63
2018-01-19T09:52:11.008Z,2.00
2018-01-19T09:54:14.951Z,2.73
2018-01-19T09:56:18.309Z,2.00
2018-01-19T09:58:21.686Z,2.77
2018-01-19T10:00:25.817Z,1.83
2018-01-19T10:02:29.165Z,1.80
2018-01-19T10:04:32.510Z,1.60
2018-01-19T10:06:35.920Z,1.83
2018-01-19T10:08:39.282Z,2.20
2018-01-19T10:10:42.641Z,1.10
2018-01-19T10:12:46.028Z,1.00
2018-01-19T10:14:49.390Z,1.73
2018-01-19T10:16:52.760Z,1.60
2018-01-19T10:18:56.180Z,2.20
2018-01-19T10:21:00.462Z,1.27
2018-01-19T10:23:03.839Z,2.30
2018-01-19T10:25:07.206Z,2.57
2018-01-19T10:27:10.569Z,1.87
2018-01-19T10:29:13.919Z,1.80
2018-01-19T10:31:17.273Z,1.40
2018-01-19T10:33:20.634Z,1.30
2018-01-19T10:35:23.996Z,3.33
2018-01-19T10:37:27.375Z,1.67
2018-01-19T10:39:31.488Z,1.67
2018-01-19T10:41:34.858Z,1.73
2018-01-19T10:43:39.029Z,1.80
2018-01-19T10:45:42.382Z,2.10
2018-01-19T10:47:46.583Z,2.10
2018-01-19T10:49:50.702Z,2.30
2018-01-19T10:51:54.577Z,1.57
2018-01-19T10:53:57.990Z,1.87
2018-01-19T10:56:01.351Z,1.83
2018-01-19T10:58:04.503Z,1.63
2018-01-19T11:00:07.858Z,1.10
2018-01-19T11:02:11.997Z,1.60
2018-01-19T11:04:15.369Z,1.53
2018-01-19T11:06:18.729Z,1.67
2018-01-19T11:08:22.090Z,3.60
2018-01-19T11:10:25.441Z,2.63
2018-01-19T11:12:29.582Z,1.77
2018-01-19T11:14:32.942Z,2.33
2018-01-19T11:16:36.307Z,2.50
2018-01-19T11:18:39.671Z,2.60
2018-01-19T11:20:43.051Z,2.07
2018-01-19T11:22:46.438Z,2.43
2018-01-19T11:24:49.806Z,1.97
2018-01-19T11:26:53.946Z,1.97
2018-01-19T11:28:57.309Z,2.30
2018-01-19T11:31:01.435Z,2.37
2018-01-19T11:33:04.800Z,2.60
2018-01-19T11:35:08.931Z,6.67
2018-01-19T11:37:12.293Z,3.13
2018-01-19T11:39:15.665Z,1.40
2018-01-19T11:41:19.045Z,3.30
2018-01-19T11:43:22.423Z,5.10
2018-01-19T11:45:25.808Z,2.57
2018-01-19T11:47:31.052Z,2.07
2018-01-19T11:49:35.254Z,1.90
2018-01-19T11:51:38.615Z,3.50
2018-01-19T11:53:41.973Z,2.90
2018-01-19T11:55:45.329Z,1.63
2018-01-19T11:57:48.690Z,3.73
2018-01-19T11:59:52.608Z,3.10
2018-01-19T12:01:55.779Z,3.40
2018-01-19T12:03:59.957Z,2.60
2018-01-19T12:06:03.498Z,2.53
2018-01-19T12:08:06.862Z,1.50
2018-01-19T12:10:10.217Z,2.00
2018-01-19T12:12:13.641Z,1.80
2018-01-19T12:14:17.025Z,3.23
2018-01-19T12:16:20.397Z,2.70
2018-01-19T12:18:24.518Z,2.53
2018-01-19T12:20:27.928Z,2.60
2018-01-19T12:22:31.282Z,3.43
2018-01-19T12:24:34.668Z,1.63
2018-01-19T12:26:38.033Z,1.70
2018-01-19T12:28:42.199Z,2.53
2018-01-19T12:30:45.589Z,2.17
2018-01-19T12:32:48.955Z,4.00
2018-01-19T12:34:52.337Z,2.10
2018-01-19T12:36:55.689Z,2.63
2018-01-19T12:38:59.044Z,4.47
2018-01-19T12:41:02.455Z,4.77
2018-01-19T12:43:05.827Z,2.17
2018-01-19T12:45:09.218Z,2.47
2018-01-19T12:47:12.580Z,4.03
2018-01-19T12:49:15.949Z,3.60
2018-01-19T12:51:20.090Z,2.37
2018-01-19T12:53:23.449Z,2.43
2018-01-19T12:55:27.590Z,2.90
2018-01-19T12:57:30.956Z,2.00
2018-01-19T12:59:35.087Z,1.73
2018-01-19T13:01:38.480Z,2.10
2018-01-19T13:03:41.837Z,2.83
2018-01-19T13:05:45.209Z,1.77
2018-01-19T13:07:48.603Z,3.47
2018-01-19T13:09:52.028Z,2.40
2018-01-19T13:11:55.434Z,3.77
2018-01-19T13:13:59.624Z,2.20
2018-01-19T13:16:03.007Z,2.47
2018-01-19T13:18:06.353Z,3.13
2018-01-19T13:20:09.723Z,4.10
2018-01-19T13:22:13.107Z,2.60
2018-01-19T13:24:17.246Z,2.90
2018-01-19T13:26:20.612Z,2.83
2018-01-19T13:28:23.985Z,2.60
2018-01-19T13:30:28.313Z,2.13
2018-01-19T13:32:31.702Z,2.27
2018-01-19T13:34:35.821Z,2.10
2018-01-19T13:36:39.181Z,2.10
2018-01-19T13:38:42.540Z,1.73
2018-01-19T13:40:45.896Z,2.87
2018-01-19T13:42:50.052Z,2.03
2018-01-19T13:44:53.471Z,1.80
2018-01-19T13:46:57.690Z,4.57
2018-01-19T13:49:01.937Z,4.93
2018-01-19T13:51:05.774Z,3.97
2018-01-19T13:53:09.185Z,2.80
2018-01-19T13:55:12.651Z,1.60
2018-01-19T13:57:16.169Z,4.10
2018-01-19T13:59:19.782Z,2.67
2018-01-19T14:01:23.341Z,2.43
2018-01-19T14:03:26.858Z,2.43
2018-01-19T14:05:31.293Z,6.03
2018-01-19T14:07:35.454Z,2.70
2018-01-19T14:09:38.848Z,2.20
2018-01-19T14:11:42.328Z,2.33
2018-01-19T14:13:45.893Z,2.97
2018-01-19T14:15:49.180Z,1.70
2018-01-19T14:17:52.721Z,3.60
2018-01-19T14:19:56.103Z,2.47
2018-01-19T14:21:59.474Z,2.23
2018-01-19T14:24:03.137Z,2.30
2018-01-19T14:26:08.068Z,3.20
2018-01-19T14:28:12.383Z,2.30
2018-01-19T14:30:15.933Z,1.77
2018-01-19T14:32:19.317Z,2.40
2018-01-19T14:34:22.989Z,1.47
2018-01-19T14:36:27.134Z,2.77
2018-01-19T14:38:30.768Z,1.57
2018-01-19T14:40:34.655Z,1.60
2018-01-19T14:42:37.852Z,2.43
2018-01-19T14:44:41.366Z,2.73
2018-01-19T14:46:44.777Z,2.40
2018-01-19T14:48:48.313Z,1.63
2018-01-19T14:50:51.701Z,1.60
2018-01-19T14:52:55.110Z,1.77
2018-01-19T14:54:58.534Z,2.30
2018-01-19T14:57:02.357Z,3.43
2018-01-19T14:59:06.568Z,3.27
2018-01-19T15:01:10.732Z,2.37
2018-01-19T15:03:14.100Z,2.00
2018-01-19T15:05:17.514Z,1.93
2018-01-19T15:07:20.943Z,2.73
2018-01-19T15:09:24.354Z,2.43
2018-01-19T15:11:28.496Z,2.20
2018-01-19T15:13:31.858Z,3.80
2018-01-19T15:15:35.240Z,4.03
2018-01-19T15:17:39.869Z,2.77
2018-01-19T15:19:44.466Z,3.30
2018-01-19T15:21:47.912Z,2.80
2018-01-19T15:23:51.280Z,4.00
2018-01-19T15:25:54.880Z,2.73
2018-01-19T15:27:58.269Z,2.57
2018-01-19T15:30:02.310Z,3.67
2018-01-19T15:32:06.722Z,1.97
2018-01-19T15:34:10.188Z,2.10
2018-01-19T15:36:13.681Z,1.30
2018-01-19T15:38:18.271Z,1.93
2018-01-19T15:40:21.694Z,3.83
2018-01-19T15:42:25.834Z,3.17
2018-01-19T15:44:29.193Z,2.83
2018-01-19T15:46:33.376Z,2.40
2018-01-19T15:48:36.735Z,3.10
2018-01-19T15:50:40.163Z,2.90
2018-01-19T15:52:43.553Z,2.93
2018-01-19T15:54:46.698Z,3.50
2018-01-19T15:56:50.093Z,3.30
2018-01-19T15:58:53.481Z,3.00
2018-01-19T16:00:57.041Z,4.07
2018-01-19T16:03:01.163Z,6.80
2018-01-19T16:05:05.314Z,3.77
2018-01-19T16:07:08.773Z,3.17
2018-01-19T16:09:12.139Z,3.90
2018-01-19T16:11:15.532Z,4.17
2018-01-19T16:13:18.949Z,2.70
2018-01-19T16:15:22.360Z,2.50
2018-01-19T16:17:25.755Z,7.87
2018-01-19T16:19:29.132Z,8.50
2018-01-19T16:21:32.550Z,4.57
2018-01-19T16:23:35.904Z,6.47
2018-01-19T16:25:40.066Z,7.67
2018-01-19T16:27:43.600Z,7.20
2018-01-19T16:29:47.586Z,4.93
2018-01-19T16:31:51.155Z,7.77
2018-01-19T16:33:54.606Z,6.00
2018-01-19T16:35:58.741Z,5.37
2018-01-19T16:38:02.208Z,5.97
2018-01-19T16:40:06.338Z,6.97
2018-01-19T16:42:09.770Z,5.93
2018-01-19T16:44:12.947Z,5.23
2018-01-19T16:46:16.214Z,4.37
2018-01-19T16:48:19.714Z,6.13
2018-01-19T16:50:23.149Z,7.27
2018-01-19T16:52:27.567Z,5.00
2018-01-19T16:54:30.924Z,4.97
2018-01-19T16:56:34.319Z,5.07
2018-01-19T16:58:37.752Z,5.53
2018-01-19T17:00:41.172Z,4.43
2018-01-19T17:02:45.428Z,4.60
2018-01-19T17:04:48.787Z,4.40
2018-01-19T17:06:52.219Z,6.30
2018-01-19T17:08:55.652Z,4.67
2018-01-19T17:10:59.814Z,4.00
2018-01-19T17:13:03.219Z,4.40
2018-01-19T17:15:06.600Z,4.47
2018-01-19T17:17:09.989Z,7.33
2018-01-19T17:19:13.424Z,5.50
2018-01-19T17:21:17.559Z,4.10
2018-01-19T17:23:21.004Z,5.43
2018-01-19T17:25:25.634Z,6.03
2018-01-19T17:27:29.074Z,5.17
2018-01-19T17:29:32.512Z,5.10
2018-01-19T17:31:36.177Z,3.50
2018-01-19T17:33:39.584Z,4.80
2018-01-19T17:35:42.958Z,6.40
2018-01-19T17:37:46.383Z,4.50
2018-01-19T17:39:49.818Z,3.10
2018-01-19T17:41:53.949Z,4.63
2018-01-19T17:43:57.372Z,4.90
2018-01-19T17:46:00.751Z,3.87
2018-01-19T17:48:04.006Z,3.93
2018-01-19T17:50:07.468Z,3.50
2018-01-19T17:52:10.841Z,5.63
2018-01-19T17:54:14.244Z,4.50
2018-01-19T17:56:17.649Z,3.63
2018-01-19T17:58:21.313Z,5.77
2018-01-19T18:00:24.730Z,5.97
2018-01-19T18:02:28.119Z,5.07
2018-01-19T18:04:31.530Z,3.20
2018-01-19T18:06:34.951Z,3.07
2018-01-19T18:08:38.323Z,4.63
2018-01-19T18:10:41.724Z,3.67
2018-01-19T18:12:45.882Z,4.27
2018-01-19T18:14:49.266Z,4.23
2018-01-19T18:16:52.675Z,3.73
2018-01-19T18:18:56.024Z,3.20
2018-01-19T18:20:59.412Z,5.17
2018-01-19T18:23:03.688Z,2.80
2018-01-19T18:25:07.919Z,2.67
2018-01-19T18:27:11.346Z,3.57
2018-01-19T18:29:14.827Z,3.73
2018-01-19T18:31:18.259Z,6.00
2018-01-19T18:33:23.125Z,4.10
2018-01-19T18:35:27.382Z,2.40
2018-01-19T18:37:31.059Z,3.40
2018-01-19T18:39:34.447Z,2.50
2018-01-19T18:41:39.094Z,4.47
2018-01-19T18:43:42.476Z,3.70
2018-01-19T18:45:45.737Z,3.13
2018-01-19T18:47:49.768Z,2.30
2018-01-19T18:49:53.145Z,3.30
2018-01-19T18:51:57.336Z,4.03
2018-01-19T18:54:00.777Z,2.37
2018-01-19T18:56:04.308Z,2.37
2018-01-19T18:58:07.685Z,3.60
2018-01-19T19:00:11.056Z,3.10
2018-01-19T19:02:14.450Z,2.67
2018-01-19T19:04:17.831Z,2.93
2018-01-19T19:06:21.226Z,2.50
2018-01-19T19:08:24.613Z,2.47
2018-01-19T19:10:28.160Z,3.27
2018-01-19T19:12:31.538Z,2.53
2018-01-19T19:14:34.957Z,3.13
2018-01-19T19:16:38.346Z,2.90
2018-01-19T19:18:41.709Z,5.00
2018-01-19T19:20:45.073Z,4.47
2018-01-19T19:22:48.505Z,4.53
2018-01-19T19:24:51.702Z,5.37
2018-01-19T19:26:54.927Z,4.37
2018-01-19T19:28:59.058Z,3.13
2018-01-19T19:31:02.427Z,3.83
2018-01-19T19:33:06.566Z,2.90
2018-01-19T19:35:10.825Z,2.50
2018-01-19T19:37:14.242Z,2.87
2018-01-19T19:39:17.690Z,3.67
2018-01-19T19:41:21.082Z,4.13
2018-01-19T19:43:24.391Z,2.87
2018-01-19T19:45:27.785Z,3.53
2018-01-19T19:47:31.221Z,2.60
2018-01-19T19:49:34.607Z,3.27
2018-01-19T19:51:37.979Z,2.40
2018-01-19T19:53:41.449Z,2.50
2018-01-19T19:55:44.893Z,2.13
2018-01-19T19:57:48.311Z,3.27
2018-01-19T19:59:51.709Z,5.17
2018-01-19T20:01:55.144Z,3.87
2018-01-19T20:03:59.305Z,2.50
2018-01-19T20:06:04.725Z,3.30
2018-01-19T20:08:08.150Z,3.73
2018-01-19T20:10:11.511Z,3.47
2018-01-19T20:12:14.910Z,2.53
2018-01-19T20:14:18.305Z,2.43
2018-01-19T20:16:21.698Z,2.47
2018-01-19T20:18:25.130Z,2.20
2018-01-19T20:20:28.534Z,2.70
2018-01-19T20:22:31.978Z,2.90
2018-01-19T20:24:35.389Z,4.50
2018-01-19T20:26:38.760Z,2.37
2018-01-19T20:28:41.990Z,3.17
2018-01-19T20:30:45.390Z,2.77
2018-01-19T20:32:48.843Z,1.97
2018-01-19T20:34:52.253Z,1.57
2018-01-19T20:36:55.669Z,2.03
2018-01-19T20:38:59.846Z,2.60
2018-01-19T20:41:03.196Z,1.73
2018-01-19T20:43:07.340Z,2.40
2018-01-19T20:45:10.756Z,2.57
2018-01-19T20:47:14.168Z,2.00
2018-01-19T20:49:18.316Z,1.97
2018-01-19T20:51:21.718Z,2.50
2018-01-19T20:53:25.128Z,1.53
2018-01-19T20:55:28.525Z,1.53
2018-01-19T20:57:31.885Z,3.40
2018-01-19T20:59:35.273Z,3.47
2018-01-19T21:01:38.728Z,2.07
2018-01-19T21:03:41.907Z,3.17
2018-01-19T21:05:45.097Z,2.50
2018-01-19T21:07:48.545Z,2.50
2018-01-19T21:09:51.946Z,2.30
2018-01-19T21:11:55.409Z,1.43
2018-01-19T21:13:59.381Z,1.90
2018-01-19T21:16:02.740Z,3.10
2018-01-19T21:18:06.111Z,2.10
2018-01-19T21:20:09.486Z,2.70
2018-01-19T21:22:14.009Z,2.03
2018-01-19T21:24:18.188Z,2.33
2018-01-19T21:26:21.601Z,1.50
2018-01-19T21:28:25.012Z,2.10
2018-01-19T21:30:29.158Z,2.10
2018-01-19T21:32:32.542Z,1.77
2018-01-19T21:34:36.029Z,1.93
2018-01-19T21:36:39.406Z,2.27
2018-01-19T21:38:42.788Z,1.50
2018-01-19T21:40:46.918Z,2.43
2018-01-19T21:42:50.407Z,1.70
2018-01-19T21:44:53.790Z,5.23
2018-01-19T21:46:57.904Z,2.00
2018-01-19T21:49:01.294Z,2.03
2018-01-19T21:51:04.447Z,1.50
2018-01-19T21:53:07.809Z,1.50
2018-01-19T21:55:11.200Z,1.97
2018-01-19T21:57:14.562Z,1.77
2018-01-19T21:59:17.954Z,2.40
2018-01-19T22:01:21.323Z,1.70
2018-01-19T22:03:25.516Z,2.17
2018-01-19T22:05:28.882Z,1.60
2018-01-19T22:07:32.243Z,1.83
2018-01-19T22:09:35.630Z,1.90
2018-01-19T22:11:38.990Z,1.57
2018-01-19T22:13:42.356Z,1.57
2018-01-19T22:15:45.718Z,1.63
2018-01-19T22:17:49.087Z,4.37
2018-01-19T22:19:53.247Z,2.53
2018-01-19T22:21:56.623Z,1.53
2018-01-19T22:23:59.994Z,2.33
2018-01-19T22:26:03.377Z,2.33
2018-01-19T22:28:07.499Z,1.40
2018-01-19T22:30:10.884Z,2.23
2018-01-19T22:32:14.248Z,2.87
2018-01-19T22:34:17.612Z,1.97
2018-01-19T22:36:20.968Z,2.40
2018-01-19T22:40:34.171Z,2.87
2018-01-19T22:42:38.307Z,1.97
2018-01-19T22:44:41.674Z,1.60
2018-01-19T22:46:45.034Z,1.80
2018-01-19T22:48:48.382Z,1.33
2018-01-19T22:50:51.774Z,2.37
2018-01-19T22:52:55.147Z,1.67
2018-01-19T22:54:59.269Z,1.67
2018-01-19T22:57:03.624Z,1.73
2018-01-19T22:59:06.814Z,2.00
2018-01-19T23:01:10.233Z,1.43
2018-01-19T23:03:13.602Z,1.53
2018-01-19T23:05:16.966Z,1.93
2018-01-19T23:07:20.351Z,1.63
2018-01-19T23:09:23.725Z,1.97
2018-01-19T23:11:27.876Z,2.80
2018-01-19T23:13:31.255Z,1.47
2018-01-19T23:15:34.613Z,1.60
2018-01-19T23:17:38.760Z,2.60
2018-01-19T23:19:42.117Z,2.00
2018-01-19T23:21:46.264Z,2.40
2018-01-19T23:23:49.635Z,1.47
2018-01-19T23:25:53.012Z,1.60
2018-01-19T23:27:57.137Z,2.07
2018-01-19T23:30:00.504Z,1.67
2018-01-19T23:32:03.902Z,2.47
2018-01-19T23:34:08.028Z,1.47
2018-01-19T23:36:11.400Z,1.57
2018-01-19T23:38:14.833Z,1.87
2018-01-19T23:40:18.185Z,1.30
2018-01-19T23:42:22.353Z,2.50
2018-01-19T23:44:25.719Z,1.77
2018-01-19T23:46:29.089Z,1.67
2018-01-19T23:48:33.242Z,1.70
2018-01-19T23:50:36.598Z,1.27
2018-01-19T23:52:40.750Z,1.67
2018-01-19T23:54:44.395Z,1.70
2018-01-19T23:56:47.890Z,1.83
2018-01-19T23:58:52.136Z,2.57
